sensor_id;sensor_type;location;lat;lon;timestamp;pressure;altitude;pressure_sealevel;temperature;humidity
43741;BME280;29352;48.708;9.290;2023-05-06T00:01:03;97933.59;;;7.22;100.00
43741;BME280;29352;48.708;9.290;2023-05-06T00:03:29;97927.75;;;7.05;100.00
43741;BME280;29352;48.708;9.290;2023-05-06T00:05:54;97932.81;;;7.00;100.00
43741;BME280;29352;48.708;9.290;2023-05-06T00:08:20;97929.78;;;7.03;100.00
43741;BME280;29352;48.708;9.290;2023-05-06T00:10:45;97936.25;;;6.94;100.00
43741;BME280;29352;48.708;9.290;2023-05-06T00:13:11;97930.53;;;6.91;100.00
43741;BME280;29352;48.708;9.290;2023-05-06T00:15:38;97937.78;;;6.82;100.00
43741;BME280;29352;48.708;9.290;2023-05-06T00:18:05;97922.41;;;6.99;100.00
43741;BME280;29352;48.708;9.290;2023-05-06T00:20:31;97925.22;;;6.91;100.00
43741;BME280;29352;48.708;9.290;2023-05-06T00:22:58;97913.38;;;6.93;100.00
43741;BME280;29352;48.708;9.290;2023-05-06T00:25:24;97914.66;;;6.97;100.00
43741;BME280;29352;48.708;9.290;2023-05-06T00:27:49;97922.81;;;6.74;100.00
43741;BME280;29352;48.708;9.290;2023-05-06T00:30:15;97917.44;;;6.68;100.00
43741;BME280;29352;48.708;9.290;2023-05-06T00:32:40;97912.50;;;6.64;100.00
43741;BME280;29352;48.708;9.290;2023-05-06T00:35:06;97907.91;;;6.73;100.00
43741;BME280;29352;48.708;9.290;2023-05-06T00:37:33;97908.34;;;6.34;99.57
43741;BME280;29352;48.708;9.290;2023-05-06T00:39:58;97912.34;;;5.87;100.00
43741;BME280;29352;48.708;9.290;2023-05-06T00:42:24;97918.78;;;5.99;99.83
43741;BME280;29352;48.708;9.290;2023-05-06T00:44:50;97913.78;;;5.75;99.78
43741;BME280;29352;48.708;9.290;2023-05-06T00:47:17;97919.38;;;5.35;100.00
43741;BME280;29352;48.708;9.290;2023-05-06T00:49:45;97919.72;;;5.91;100.00
43741;BME280;29352;48.708;9.290;2023-05-06T00:52:12;97924.13;;;5.69;100.00
43741;BME280;29352;48.708;9.290;2023-05-06T00:54:39;97924.00;;;5.92;100.00
43741;BME280;29352;48.708;9.290;2023-05-06T00:57:05;97921.63;;;5.98;100.00
43741;BME280;29352;48.708;9.290;2023-05-06T00:59:30;97922.56;;;5.60;100.00
43741;BME280;29352;48.708;9.290;2023-05-06T01:01:56;97914.63;;;5.45;100.00
43741;BME280;29352;48.708;9.290;2023-05-06T01:04:22;97920.81;;;5.53;100.00
43741;BME280;29352;48.708;9.290;2023-05-06T01:07:18;97922.97;;;4.90;100.00
43741;BME280;29352;48.708;9.290;2023-05-06T01:11:06;97922.38;;;5.17;100.00
43741;BME280;29352;48.708;9.290;2023-05-06T01:13:29;97919.44;;;5.12;100.00
43741;BME280;29352;48.708;9.290;2023-05-06T01:16:07;97930.47;;;5.16;100.00
43741;BME280;29352;48.708;9.290;2023-05-06T01:18:37;97924.47;;;5.22;100.00
43741;BME280;29352;48.708;9.290;2023-05-06T01:21:04;97916.34;;;5.23;100.00
43741;BME280;29352;48.708;9.290;2023-05-06T01:23:49;97909.41;;;5.22;100.00
43741;BME280;29352;48.708;9.290;2023-05-06T01:26:23;97909.59;;;5.36;100.00
43741;BME280;29352;48.708;9.290;2023-05-06T01:28:48;97916.47;;;4.92;100.00
43741;BME280;29352;48.708;9.290;2023-05-06T01:31:35;97912.91;;;4.85;100.00
43741;BME280;29352;48.708;9.290;2023-05-06T01:34:34;97918.31;;;4.92;100.00
43741;BME280;29352;48.708;9.290;2023-05-06T01:37:26;97916.09;;;4.81;100.00
43741;BME280;29352;48.708;9.290;2023-05-06T01:39:59;97919.44;;;4.74;100.00
43741;BME280;29352;48.708;9.290;2023-05-06T01:42:29;97920.16;;;4.45;100.00
43741;BME280;29352;48.708;9.290;2023-05-06T01:45:01;97921.25;;;4.59;100.00
43741;BME280;29352;48.708;9.290;2023-05-06T01:47:29;97927.69;;;4.57;100.00
43741;BME280;29352;48.708;9.290;2023-05-06T01:49:57;97932.19;;;4.25;100.00
43741;BME280;29352;48.708;9.290;2023-05-06T01:52:24;97929.34;;;4.26;100.00
43741;BME280;29352;48.708;9.290;2023-05-06T01:54:50;97928.88;;;4.54;100.00
43741;BME280;29352;48.708;9.290;2023-05-06T01:57:16;97927.63;;;4.65;100.00
43741;BME280;29352;48.708;9.290;2023-05-06T01:59:41;97926.44;;;4.67;100.00
43741;BME280;29352;48.708;9.290;2023-05-06T02:02:07;97932.41;;;4.69;100.00
43741;BME280;29352;48.708;9.290;2023-05-06T02:04:32;97922.81;;;4.68;100.00
43741;BME280;29352;48.708;9.290;2023-05-06T02:06:58;97931.03;;;4.73;100.00
43741;BME280;29352;48.708;9.290;2023-05-06T02:09:23;97923.13;;;4.88;100.00
43741;BME280;29352;48.708;9.290;2023-05-06T02:11:48;97920.22;;;4.83;100.00
43741;BME280;29352;48.708;9.290;2023-05-06T02:14:14;97918.97;;;4.94;100.00
43741;BME280;29352;48.708;9.290;2023-05-06T02:16:39;97913.22;;;4.90;100.00
43741;BME280;29352;48.708;9.290;2023-05-06T02:19:05;97920.44;;;4.96;100.00
43741;BME280;29352;48.708;9.290;2023-05-06T02:21:31;97912.75;;;5.02;100.00
43741;BME280;29352;48.708;9.290;2023-05-06T02:23:57;97917.69;;;4.90;100.00
43741;BME280;29352;48.708;9.290;2023-05-06T02:26:22;97913.06;;;5.07;100.00
43741;BME280;29352;48.708;9.290;2023-05-06T02:28:48;97919.88;;;5.01;100.00
43741;BME280;29352;48.708;9.290;2023-05-06T02:31:14;97922.06;;;4.97;100.00
43741;BME280;29352;48.708;9.290;2023-05-06T02:33:41;97913.69;;;5.09;100.00
43741;BME280;29352;48.708;9.290;2023-05-06T02:36:07;97918.19;;;4.85;100.00
43741;BME280;29352;48.708;9.290;2023-05-06T02:38:32;97908.94;;;5.04;100.00
43741;BME280;29352;48.708;9.290;2023-05-06T02:40:58;97914.59;;;5.01;100.00
43741;BME280;29352;48.708;9.290;2023-05-06T02:43:23;97910.72;;;4.89;100.00
43741;BME280;29352;48.708;9.290;2023-05-06T02:45:49;97911.16;;;4.78;100.00
43741;BME280;29352;48.708;9.290;2023-05-06T02:48:14;97910.53;;;4.76;100.00
43741;BME280;29352;48.708;9.290;2023-05-06T02:50:40;97909.81;;;4.82;100.00
43741;BME280;29352;48.708;9.290;2023-05-06T02:53:05;97907.28;;;5.03;100.00
43741;BME280;29352;48.708;9.290;2023-05-06T02:55:33;97900.56;;;5.15;100.00
43741;BME280;29352;48.708;9.290;2023-05-06T02:57:58;97897.44;;;5.27;100.00
43741;BME280;29352;48.708;9.290;2023-05-06T03:00:23;97902.47;;;5.21;100.00
43741;BME280;29352;48.708;9.290;2023-05-06T03:02:49;97896.44;;;4.98;100.00
43741;BME280;29352;48.708;9.290;2023-05-06T03:05:14;97895.88;;;5.03;100.00
43741;BME280;29352;48.708;9.290;2023-05-06T03:07:40;97892.34;;;5.10;100.00
43741;BME280;29352;48.708;9.290;2023-05-06T03:10:06;97905.59;;;5.10;100.00
43741;BME280;29352;48.708;9.290;2023-05-06T03:12:31;97908.53;;;4.92;100.00
43741;BME280;29352;48.708;9.290;2023-05-06T03:14:57;97901.41;;;4.78;100.00
43741;BME280;29352;48.708;9.290;2023-05-06T03:17:22;97902.97;;;4.72;100.00
43741;BME280;29352;48.708;9.290;2023-05-06T03:19:48;97900.59;;;4.78;100.00
43741;BME280;29352;48.708;9.290;2023-05-06T03:22:14;97903.22;;;4.63;100.00
43741;BME280;29352;48.708;9.290;2023-05-06T03:24:40;97904.91;;;4.56;100.00
43741;BME280;29352;48.708;9.290;2023-05-06T03:27:05;97903.84;;;4.42;100.00
43741;BME280;29352;48.708;9.290;2023-05-06T03:29:31;97906.75;;;4.55;100.00
43741;BME280;29352;48.708;9.290;2023-05-06T03:31:56;97903.44;;;4.53;100.00
43741;BME280;29352;48.708;9.290;2023-05-06T03:34:22;97897.19;;;4.23;100.00
43741;BME280;29352;48.708;9.290;2023-05-06T03:36:47;97898.19;;;4.22;100.00
43741;BME280;29352;48.708;9.290;2023-05-06T03:39:13;97898.59;;;4.11;100.00
43741;BME280;29352;48.708;9.290;2023-05-06T03:41:38;97898.41;;;4.12;100.00
43741;BME280;29352;48.708;9.290;2023-05-06T03:44:04;97908.03;;;4.05;100.00
43741;BME280;29352;48.708;9.290;2023-05-06T03:46:29;97902.69;;;3.90;100.00
43741;BME280;29352;48.708;9.290;2023-05-06T03:48:55;97905.47;;;3.89;100.00
43741;BME280;29352;48.708;9.290;2023-05-06T03:51:21;97904.03;;;3.86;100.00
43741;BME280;29352;48.708;9.290;2023-05-06T03:53:47;97899.84;;;3.92;100.00
43741;BME280;29352;48.708;9.290;2023-05-06T03:56:12;97895.91;;;3.88;100.00
43741;BME280;29352;48.708;9.290;2023-05-06T03:58:37;97899.22;;;3.90;100.00
43741;BME280;29352;48.708;9.290;2023-05-06T04:01:03;97897.00;;;3.70;100.00
43741;BME280;29352;48.708;9.290;2023-05-06T04:03:29;97892.06;;;3.67;100.00
43741;BME280;29352;48.708;9.290;2023-05-06T04:05:54;97897.09;;;3.85;100.00
43741;BME280;29352;48.708;9.290;2023-05-06T04:08:20;97898.09;;;3.84;100.00
43741;BME280;29352;48.708;9.290;2023-05-06T04:10:45;97902.84;;;3.89;100.00
43741;BME280;29352;48.708;9.290;2023-05-06T04:13:11;97901.25;;;3.79;100.00
43741;BME280;29352;48.708;9.290;2023-05-06T04:15:36;97904.91;;;3.70;100.00
43741;BME280;29352;48.708;9.290;2023-05-06T04:18:03;97909.75;;;4.21;100.00
43741;BME280;29352;48.708;9.290;2023-05-06T04:20:30;97904.84;;;3.87;100.00
43741;BME280;29352;48.708;9.290;2023-05-06T04:22:55;97899.03;;;3.91;100.00
43741;BME280;29352;48.708;9.290;2023-05-06T04:25:21;97905.41;;;4.05;100.00
43741;BME280;29352;48.708;9.290;2023-05-06T04:27:46;97911.66;;;4.35;100.00
43741;BME280;29352;48.708;9.290;2023-05-06T04:30:12;97899.94;;;4.30;100.00
43741;BME280;29352;48.708;9.290;2023-05-06T04:32:37;97901.19;;;4.42;100.00
43741;BME280;29352;48.708;9.290;2023-05-06T04:35:03;97909.41;;;4.47;100.00
43741;BME280;29352;48.708;9.290;2023-05-06T04:37:29;97909.09;;;4.50;100.00
43741;BME280;29352;48.708;9.290;2023-05-06T04:39:55;97911.44;;;5.35;98.25
43741;BME280;29352;48.708;9.290;2023-05-06T04:42:21;97913.72;;;4.86;96.52
43741;BME280;29352;48.708;9.290;2023-05-06T04:44:47;97921.75;;;4.32;97.16
43741;BME280;29352;48.708;9.290;2023-05-06T04:47:13;97919.78;;;4.57;96.24
43741;BME280;29352;48.708;9.290;2023-05-06T04:49:40;97923.75;;;4.76;94.74
43741;BME280;29352;48.708;9.290;2023-05-06T04:52:06;97920.69;;;4.87;94.45
43741;BME280;29352;48.708;9.290;2023-05-06T04:54:31;97927.09;;;5.07;93.33
43741;BME280;29352;48.708;9.290;2023-05-06T04:56:57;97931.50;;;5.30;92.48
43741;BME280;29352;48.708;9.290;2023-05-06T04:59:22;97925.56;;;6.45;89.38
43741;BME280;29352;48.708;9.290;2023-05-06T05:01:48;97921.31;;;7.15;86.73
43741;BME280;29352;48.708;9.290;2023-05-06T05:04:13;97923.75;;;7.86;84.47
43741;BME280;29352;48.708;9.290;2023-05-06T05:06:39;97923.34;;;8.57;82.07
43741;BME280;29352;48.708;9.290;2023-05-06T05:09:04;97922.97;;;9.91;78.05
43741;BME280;29352;48.708;9.290;2023-05-06T05:11:30;97927.69;;;10.34;75.69
43741;BME280;29352;48.708;9.290;2023-05-06T05:13:56;97919.00;;;11.02;74.99
43741;BME280;29352;48.708;9.290;2023-05-06T05:16:21;97922.31;;;11.22;73.36
43741;BME280;29352;48.708;9.290;2023-05-06T05:18:47;97923.81;;;11.18;73.02
43741;BME280;29352;48.708;9.290;2023-05-06T05:21:12;97920.69;;;12.13;71.31
43741;BME280;29352;48.708;9.290;2023-05-06T05:23:38;97924.94;;;11.72;71.57
43741;BME280;29352;48.708;9.290;2023-05-06T05:26:03;97930.22;;;12.09;71.44
43741;BME280;29352;48.708;9.290;2023-05-06T05:28:29;97932.34;;;11.52;73.29
43741;BME280;29352;48.708;9.290;2023-05-06T05:31:00;97941.31;;;11.14;74.03
43741;BME280;29352;48.708;9.290;2023-05-06T05:33:29;97936.94;;;11.63;72.65
43741;BME280;29352;48.708;9.290;2023-05-06T05:35:55;97941.25;;;10.96;73.63
43741;BME280;29352;48.708;9.290;2023-05-06T05:38:20;97942.66;;;10.73;74.73
43741;BME280;29352;48.708;9.290;2023-05-06T05:40:46;97935.13;;;12.12;71.90
43741;BME280;29352;48.708;9.290;2023-05-06T05:43:11;97934.09;;;12.31;70.28
43741;BME280;29352;48.708;9.290;2023-05-06T05:45:37;97941.03;;;13.16;68.56
43741;BME280;29352;48.708;9.290;2023-05-06T05:48:02;97941.41;;;12.36;69.46
43741;BME280;29352;48.708;9.290;2023-05-06T05:50:28;97937.53;;;13.51;67.47
43741;BME280;29352;48.708;9.290;2023-05-06T05:52:53;97939.53;;;13.09;67.87
43741;BME280;29352;48.708;9.290;2023-05-06T05:55:20;97938.28;;;13.99;66.07
43741;BME280;29352;48.708;9.290;2023-05-06T05:57:45;97942.19;;;13.20;66.83
43741;BME280;29352;48.708;9.290;2023-05-06T06:00:11;97941.66;;;14.06;65.42
43741;BME280;29352;48.708;9.290;2023-05-06T06:02:37;97933.16;;;15.00;63.26
43741;BME280;29352;48.708;9.290;2023-05-06T06:05:03;97939.03;;;14.23;64.06
43741;BME280;29352;48.708;9.290;2023-05-06T06:07:29;97936.28;;;15.25;62.86
43741;BME280;29352;48.708;9.290;2023-05-06T06:09:54;97926.25;;;16.47;60.11
43741;BME280;29352;48.708;9.290;2023-05-06T06:12:21;97930.00;;;16.73;59.98
43741;BME280;29352;48.708;9.290;2023-05-06T06:14:47;97933.50;;;16.74;58.80
43741;BME280;29352;48.708;9.290;2023-05-06T06:17:13;97940.31;;;15.28;61.68
43741;BME280;29352;48.708;9.290;2023-05-06T06:19:39;97935.28;;;16.14;60.32
43741;BME280;29352;48.708;9.290;2023-05-06T06:22:05;97938.34;;;14.73;63.49
43741;BME280;29352;48.708;9.290;2023-05-06T06:24:30;97941.28;;;14.71;64.15
43741;BME280;29352;48.708;9.290;2023-05-06T06:26:59;97939.69;;;15.21;62.67
43741;BME280;29352;48.708;9.290;2023-05-06T06:29:25;97928.81;;;16.37;60.00
43741;BME280;29352;48.708;9.290;2023-05-06T06:31:51;97929.50;;;15.61;59.25
43741;BME280;29352;48.708;9.290;2023-05-06T06:34:16;97929.13;;;15.92;59.51
43741;BME280;29352;48.708;9.290;2023-05-06T06:36:42;97925.91;;;16.17;58.57
43741;BME280;29352;48.708;9.290;2023-05-06T06:39:11;97934.81;;;17.03;56.69
43741;BME280;29352;48.708;9.290;2023-05-06T06:41:37;97933.72;;;16.67;56.42
43741;BME280;29352;48.708;9.290;2023-05-06T06:44:03;97939.91;;;17.32;55.60
43741;BME280;29352;48.708;9.290;2023-05-06T06:46:29;97946.00;;;16.85;56.37
43741;BME280;29352;48.708;9.290;2023-05-06T06:48:54;97939.22;;;17.47;56.68
43741;BME280;29352;48.708;9.290;2023-05-06T06:51:20;97942.59;;;18.42;54.00
43741;BME280;29352;48.708;9.290;2023-05-06T06:53:45;97943.59;;;18.26;53.77
43741;BME280;29352;48.708;9.290;2023-05-06T06:56:13;97944.16;;;18.23;53.71
43741;BME280;29352;48.708;9.290;2023-05-06T06:58:40;97936.72;;;16.22;57.19
43741;BME280;29352;48.708;9.290;2023-05-06T07:01:05;97942.84;;;16.93;55.63
43741;BME280;29352;48.708;9.290;2023-05-06T07:03:31;97945.06;;;18.49;53.51
43741;BME280;29352;48.708;9.290;2023-05-06T07:05:56;97938.69;;;18.03;54.81
43741;BME280;29352;48.708;9.290;2023-05-06T07:08:22;97940.94;;;17.26;54.02
43741;BME280;29352;48.708;9.290;2023-05-06T07:10:47;97945.06;;;17.39;54.51
43741;BME280;29352;48.708;9.290;2023-05-06T07:13:15;97944.09;;;18.08;54.30
43741;BME280;29352;48.708;9.290;2023-05-06T07:15:41;97941.69;;;17.59;54.75
43741;BME280;29352;48.708;9.290;2023-05-06T07:18:07;97952.78;;;15.73;58.13
43741;BME280;29352;48.708;9.290;2023-05-06T07:20:33;97957.25;;;14.95;58.83
43741;BME280;29352;48.708;9.290;2023-05-06T07:22:58;97966.25;;;14.72;59.43
43741;BME280;29352;48.708;9.290;2023-05-06T07:25:24;97955.66;;;14.08;60.47
43741;BME280;29352;48.708;9.290;2023-05-06T07:27:51;97958.84;;;12.99;65.01
43741;BME280;29352;48.708;9.290;2023-05-06T07:30:16;97962.19;;;12.52;63.73
43741;BME280;29352;48.708;9.290;2023-05-06T07:32:43;97952.69;;;13.34;63.12
43741;BME280;29352;48.708;9.290;2023-05-06T07:35:09;97958.88;;;13.22;63.99
43741;BME280;29352;48.708;9.290;2023-05-06T07:37:34;97968.47;;;12.58;67.18
43741;BME280;29352;48.708;9.290;2023-05-06T07:39:59;97962.09;;;12.59;66.48
43741;BME280;29352;48.708;9.290;2023-05-06T07:42:25;97964.50;;;12.19;67.29
43741;BME280;29352;48.708;9.290;2023-05-06T07:44:50;97966.78;;;11.60;68.57
43741;BME280;29352;48.708;9.290;2023-05-06T07:47:28;97969.72;;;12.44;65.47
43741;BME280;29352;48.708;9.290;2023-05-06T07:49:56;97968.88;;;13.27;63.23
43741;BME280;29352;48.708;9.290;2023-05-06T07:52:22;97971.66;;;12.37;67.66
43741;BME280;29352;48.708;9.290;2023-05-06T07:54:49;97968.97;;;12.55;67.00
43741;BME280;29352;48.708;9.290;2023-05-06T07:57:15;97976.66;;;12.63;67.31
43741;BME280;29352;48.708;9.290;2023-05-06T07:59:42;97966.78;;;13.06;67.08
43741;BME280;29352;48.708;9.290;2023-05-06T08:02:08;97971.44;;;13.34;65.94
43741;BME280;29352;48.708;9.290;2023-05-06T08:04:34;97976.81;;;13.22;64.46
43741;BME280;29352;48.708;9.290;2023-05-06T08:07:00;97975.94;;;12.56;63.75
43741;BME280;29352;48.708;9.290;2023-05-06T08:09:25;97972.97;;;13.53;62.79
43741;BME280;29352;48.708;9.290;2023-05-06T08:11:52;97973.28;;;14.44;59.51
43741;BME280;29352;48.708;9.290;2023-05-06T08:14:17;97974.31;;;14.72;58.81
43741;BME280;29352;48.708;9.290;2023-05-06T08:16:42;97967.84;;;15.35;58.88
43741;BME280;29352;48.708;9.290;2023-05-06T08:19:08;97970.06;;;16.65;54.34
43741;BME280;29352;48.708;9.290;2023-05-06T08:21:33;97971.56;;;16.06;56.33
43741;BME280;29352;48.708;9.290;2023-05-06T08:23:59;97983.75;;;15.20;57.94
43741;BME280;29352;48.708;9.290;2023-05-06T08:26:24;97974.75;;;16.74;54.62
43741;BME280;29352;48.708;9.290;2023-05-06T08:28:50;97976.50;;;15.76;56.01
43741;BME280;29352;48.708;9.290;2023-05-06T08:31:15;97978.28;;;15.14;58.02
43741;BME280;29352;48.708;9.290;2023-05-06T08:33:40;97971.69;;;15.78;57.22
43741;BME280;29352;48.708;9.290;2023-05-06T08:36:06;97980.19;;;13.17;62.17
43741;BME280;29352;48.708;9.290;2023-05-06T08:38:31;97974.63;;;15.76;57.48
43741;BME280;29352;48.708;9.290;2023-05-06T08:40:59;97974.84;;;15.02;57.94
43741;BME280;29352;48.708;9.290;2023-05-06T08:43:39;97962.22;;;16.36;57.93
43741;BME280;29352;48.708;9.290;2023-05-06T08:46:08;97970.34;;;15.97;57.51
43741;BME280;29352;48.708;9.290;2023-05-06T08:48:34;97974.16;;;15.62;59.74
43741;BME280;29352;48.708;9.290;2023-05-06T08:51:01;97980.34;;;14.79;60.45
43741;BME280;29352;48.708;9.290;2023-05-06T08:53:29;97986.50;;;14.62;60.65
43741;BME280;29352;48.708;9.290;2023-05-06T08:56:01;97982.44;;;14.60;59.16
43741;BME280;29352;48.708;9.290;2023-05-06T08:58:32;97981.81;;;13.65;60.82
43741;BME280;29352;48.708;9.290;2023-05-06T09:01:00;97982.47;;;14.77;58.36
43741;BME280;29352;48.708;9.290;2023-05-06T09:03:27;97986.50;;;15.08;57.82
43741;BME280;29352;48.708;9.290;2023-05-06T09:05:54;97981.44;;;14.95;56.96
43741;BME280;29352;48.708;9.290;2023-05-06T09:08:20;97984.09;;;15.23;56.00
43741;BME280;29352;48.708;9.290;2023-05-06T09:10:46;97985.00;;;14.83;57.24
43741;BME280;29352;48.708;9.290;2023-05-06T09:13:13;97985.56;;;14.40;58.78
43741;BME280;29352;48.708;9.290;2023-05-06T09:15:44;97984.50;;;14.01;59.71
43741;BME280;29352;48.708;9.290;2023-05-06T09:18:12;97977.69;;;14.38;58.69
43741;BME280;29352;48.708;9.290;2023-05-06T09:20:43;97973.91;;;13.70;59.09
43741;BME280;29352;48.708;9.290;2023-05-06T09:23:12;97982.63;;;13.07;60.90
43741;BME280;29352;48.708;9.290;2023-05-06T09:25:40;97985.31;;;13.07;62.39
43741;BME280;29352;48.708;9.290;2023-05-06T09:28:11;97980.59;;;14.49;59.12
43741;BME280;29352;48.708;9.290;2023-05-06T09:30:40;97970.41;;;13.82;61.30
43741;BME280;29352;48.708;9.290;2023-05-06T09:33:07;97974.22;;;15.12;59.10
43741;BME280;29352;48.708;9.290;2023-05-06T09:35:38;97968.09;;;15.00;59.35
43741;BME280;29352;48.708;9.290;2023-05-06T09:38:07;97959.78;;;16.13;54.33
43741;BME280;29352;48.708;9.290;2023-05-06T09:40:37;97958.41;;;16.10;54.88
43741;BME280;29352;48.708;9.290;2023-05-06T09:43:03;97959.31;;;16.70;54.04
43741;BME280;29352;48.708;9.290;2023-05-06T09:45:30;97960.03;;;15.89;53.82
43741;BME280;29352;48.708;9.290;2023-05-06T09:47:57;97955.44;;;16.88;52.51
43741;BME280;29352;48.708;9.290;2023-05-06T09:50:24;97954.31;;;16.07;53.01
43741;BME280;29352;48.708;9.290;2023-05-06T09:52:50;97949.44;;;16.04;52.57
43741;BME280;29352;48.708;9.290;2023-05-06T09:55:20;97947.66;;;16.91;50.20
43741;BME280;29352;48.708;9.290;2023-05-06T09:57:49;97947.72;;;16.15;50.62
43741;BME280;29352;48.708;9.290;2023-05-06T10:00:15;97945.78;;;16.92;49.71
43741;BME280;29352;48.708;9.290;2023-05-06T10:02:42;97935.41;;;17.90;48.83
43741;BME280;29352;48.708;9.290;2023-05-06T10:05:10;97940.28;;;16.49;50.88
43741;BME280;29352;48.708;9.290;2023-05-06T10:07:38;97933.91;;;18.30;48.92
43741;BME280;29352;48.708;9.290;2023-05-06T10:10:08;97932.97;;;17.94;48.35
43741;BME280;29352;48.708;9.290;2023-05-06T10:12:36;97937.25;;;16.46;51.18
43741;BME280;29352;48.708;9.290;2023-05-06T10:15:03;97935.16;;;13.90;54.45
43741;BME280;29352;48.708;9.290;2023-05-06T10:17:30;97937.81;;;14.30;54.18
43741;BME280;29352;48.708;9.290;2023-05-06T10:19:58;97930.88;;;13.77;55.47
43741;BME280;29352;48.708;9.290;2023-05-06T10:25:43;97921.31;;;16.66;50.87
43741;BME280;29352;48.708;9.290;2023-05-06T10:28:11;97917.59;;;15.96;52.70
43741;BME280;29352;48.708;9.290;2023-05-06T10:30:38;97917.38;;;16.79;52.55
43741;BME280;29352;48.708;9.290;2023-05-06T10:33:09;97905.69;;;16.41;53.18
43741;BME280;29352;48.708;9.290;2023-05-06T10:38:21;97910.22;;;16.36;53.07
43741;BME280;29352;48.708;9.290;2023-05-06T10:40:53;97905.06;;;16.88;52.46
43741;BME280;29352;48.708;9.290;2023-05-06T10:43:31;97896.50;;;17.34;51.22
43741;BME280;29352;48.708;9.290;2023-05-06T10:51:34;97898.25;;;15.99;55.86
43741;BME280;29352;48.708;9.290;2023-05-06T10:54:05;97889.72;;;16.07;54.37
43741;BME280;29352;48.708;9.290;2023-05-06T10:57:06;97889.75;;;15.08;53.68
43741;BME280;29352;48.708;9.290;2023-05-06T10:59:45;97880.41;;;15.93;52.49
43741;BME280;29352;48.708;9.290;2023-05-06T11:02:12;97881.34;;;16.04;54.31
43741;BME280;29352;48.708;9.290;2023-05-06T11:04:39;97879.97;;;17.20;52.32
43741;BME280;29352;48.708;9.290;2023-05-06T11:07:17;97868.91;;;17.74;52.35
43741;BME280;29352;48.708;9.290;2023-05-06T11:10:03;97863.75;;;18.66;48.55
43741;BME280;29352;48.708;9.290;2023-05-06T11:12:50;97868.16;;;16.94;50.85
43741;BME280;29352;48.708;9.290;2023-05-06T11:15:23;97875.22;;;16.08;50.87
43741;BME280;29352;48.708;9.290;2023-05-06T11:26:27;97872.31;;;15.49;54.15
43741;BME280;29352;48.708;9.290;2023-05-06T11:28:52;97862.97;;;15.74;52.36
43741;BME280;29352;48.708;9.290;2023-05-06T11:31:20;97864.41;;;14.87;54.11
43741;BME280;29352;48.708;9.290;2023-05-06T11:33:48;97865.69;;;15.79;52.80
43741;BME280;29352;48.708;9.290;2023-05-06T11:36:18;97867.91;;;15.82;52.86
43741;BME280;29352;48.708;9.290;2023-05-06T11:38:47;97861.19;;;16.06;51.85
43741;BME280;29352;48.708;9.290;2023-05-06T11:41:16;97856.50;;;15.97;51.98
43741;BME280;29352;48.708;9.290;2023-05-06T11:43:48;97860.97;;;15.86;51.98
43741;BME280;29352;48.708;9.290;2023-05-06T11:46:20;97859.50;;;15.34;52.61
43741;BME280;29352;48.708;9.290;2023-05-06T11:48:47;97868.34;;;15.74;52.83
43741;BME280;29352;48.708;9.290;2023-05-06T11:51:14;97852.44;;;15.94;52.09
43741;BME280;29352;48.708;9.290;2023-05-06T11:53:40;97854.25;;;15.45;53.53
43741;BME280;29352;48.708;9.290;2023-05-06T11:56:06;97863.38;;;15.44;53.42
43741;BME280;29352;48.708;9.290;2023-05-06T11:58:32;97859.16;;;15.92;52.69
43741;BME280;29352;48.708;9.290;2023-05-06T12:00:59;97857.38;;;15.36;52.75
43741;BME280;29352;48.708;9.290;2023-05-06T12:03:29;97854.00;;;15.90;52.32
43741;BME280;29352;48.708;9.290;2023-05-06T12:05:56;97854.78;;;15.85;50.20
43741;BME280;29352;48.708;9.290;2023-05-06T12:08:26;97859.34;;;16.39;50.23
43741;BME280;29352;48.708;9.290;2023-05-06T12:11:13;97846.25;;;17.22;50.21
43741;BME280;29352;48.708;9.290;2023-05-06T12:13:39;97850.75;;;17.07;50.47
43741;BME280;29352;48.708;9.290;2023-05-06T12:16:06;97855.50;;;16.94;50.00
43741;BME280;29352;48.708;9.290;2023-05-06T12:18:32;97852.25;;;17.87;48.91
43741;BME280;29352;48.708;9.290;2023-05-06T12:21:00;97850.94;;;18.05;47.91
43741;BME280;29352;48.708;9.290;2023-05-06T12:23:31;97845.88;;;18.34;49.67
43741;BME280;29352;48.708;9.290;2023-05-06T12:26:04;97845.34;;;18.53;46.33
43741;BME280;29352;48.708;9.290;2023-05-06T12:28:35;97833.97;;;19.12;45.98
43741;BME280;29352;48.708;9.290;2023-05-06T12:31:18;97843.69;;;18.98;47.72
43741;BME280;29352;48.708;9.290;2023-05-06T12:33:44;97836.13;;;18.28;50.69
43741;BME280;29352;48.708;9.290;2023-05-06T12:36:13;97837.78;;;18.60;47.92
43741;BME280;29352;48.708;9.290;2023-05-06T12:38:48;97831.19;;;17.79;52.79
43741;BME280;29352;48.708;9.290;2023-05-06T12:41:15;97842.84;;;18.10;47.11
43741;BME280;29352;48.708;9.290;2023-05-06T12:43:41;97839.56;;;16.50;49.73
43741;BME280;29352;48.708;9.290;2023-05-06T12:46:07;97841.16;;;16.84;49.83
43741;BME280;29352;48.708;9.290;2023-05-06T12:48:34;97842.75;;;15.93;50.26
43741;BME280;29352;48.708;9.290;2023-05-06T12:51:00;97833.66;;;16.53;51.38
43741;BME280;29352;48.708;9.290;2023-05-06T12:53:41;97827.66;;;17.16;51.96
43741;BME280;29352;48.708;9.290;2023-05-06T12:56:07;97826.75;;;17.58;48.93
43741;BME280;29352;48.708;9.290;2023-05-06T12:58:32;97830.50;;;16.67;48.99
43741;BME280;29352;48.708;9.290;2023-05-06T13:01:01;97821.75;;;16.82;51.86
43741;BME280;29352;48.708;9.290;2023-05-06T13:03:27;97821.97;;;16.75;52.72
43741;BME280;29352;48.708;9.290;2023-05-06T13:05:53;97832.41;;;16.66;53.48
43741;BME280;29352;48.708;9.290;2023-05-06T13:08:19;97831.81;;;16.96;53.21
43741;BME280;29352;48.708;9.290;2023-05-06T13:10:44;97823.31;;;16.45;50.10
43741;BME280;29352;48.708;9.290;2023-05-06T13:13:10;97824.53;;;16.00;51.55
43741;BME280;29352;48.708;9.290;2023-05-06T13:15:35;97821.75;;;16.49;49.43
43741;BME280;29352;48.708;9.290;2023-05-06T13:18:01;97815.38;;;17.40;48.79
43741;BME280;29352;48.708;9.290;2023-05-06T13:20:27;97804.63;;;17.50;48.85
43741;BME280;29352;48.708;9.290;2023-05-06T13:22:52;97800.03;;;17.03;49.19